createdAt,value
2022-12-31T00:00:28.558Z,436.8
2022-12-31T00:05:30.167Z,444.81301
2022-12-31T00:10:31.930Z,444.81301
2022-12-31T00:15:33.830Z,440.77419
2022-12-31T00:20:35.305Z,440.77419
2022-12-31T00:25:36.922Z,436.8
2022-12-31T00:30:38.815Z,440.77419
2022-12-31T00:35:40.278Z,448.91803
2022-12-31T00:40:41.772Z,466.0339
2022-12-31T00:45:43.416Z,457.33333
2022-12-31T00:50:44.944Z,466.0339
2022-12-31T00:55:46.604Z,466.0339
2022-12-31T01:00:48.425Z,457.33333
2022-12-31T01:05:49.965Z,448.91803
2022-12-31T01:10:51.478Z,436.8
2022-12-31T01:15:53.263Z,421.51938
2022-12-31T01:20:54.811Z,421.51938
2022-12-31T01:25:57.163Z,414.22901
2022-12-31T01:30:58.896Z,417.84615
2022-12-31T01:36:00.625Z,421.51938
2022-12-31T01:41:02.400Z,421.51938
2022-12-31T01:46:04.787Z,425.25
2022-12-31T01:51:06.563Z,432.88889
2022-12-31T01:56:08.597Z,436.8
2022-12-31T02:01:10.403Z,432.88889
2022-12-31T02:06:12.305Z,444.81301
2022-12-31T02:11:14.083Z,436.8
2022-12-31T02:16:15.956Z,432.88889
2022-12-31T02:21:17.637Z,436.8
2022-12-31T02:26:19.620Z,417.84615
2022-12-31T02:31:21.421Z,400.2963
2022-12-31T02:36:23.187Z,400.2963
2022-12-31T02:41:24.686Z,407.15789
2022-12-31T02:46:26.599Z,414.22901
2022-12-31T02:51:28.400Z,414.22901
2022-12-31T02:56:30.359Z,414.22901
2022-12-31T03:01:32.477Z,417.84615
2022-12-31T03:06:34.341Z,417.84615
2022-12-31T03:11:36.109Z,414.22901
2022-12-31T03:16:37.770Z,410.66667
2022-12-31T03:21:39.481Z,410.66667
2022-12-31T03:26:41.261Z,407.15789
2022-12-31T03:31:42.933Z,403.70149
2022-12-31T03:36:44.439Z,400.2963
2022-12-31T03:41:46.020Z,387.16547
2022-12-31T03:46:47.862Z,374.76923
2022-12-31T03:51:49.423Z,365.91781
2022-12-31T03:56:55.362Z,354.66667
2022-12-31T04:02:01.819Z,351.94702
2022-12-31T04:07:03.657Z,371.77778
2022-12-31T04:12:05.393Z,380.87943
2022-12-31T04:17:07.127Z,400.2963
2022-12-31T04:22:08.891Z,414.22901
2022-12-31T04:27:10.670Z,421.51938
2022-12-31T04:32:12.494Z,425.25
2022-12-31T04:37:14.260Z,421.51938
2022-12-31T04:42:16.015Z,407.15789
2022-12-31T04:47:23.296Z,403.70149
2022-12-31T04:52:25.556Z,387.16547
2022-12-31T04:57:27.517Z,403.70149
2022-12-31T05:02:29.466Z,393.63504
2022-12-31T05:07:31.349Z,390.37681
2022-12-31T05:12:33.135Z,396.94118
2022-12-31T05:17:34.891Z,396.94118
2022-12-31T05:22:36.691Z,390.37681
2022-12-31T05:27:38.450Z,403.70149
2022-12-31T05:32:40.001Z,393.63504
2022-12-31T05:37:41.603Z,393.63504
2022-12-31T05:42:43.260Z,407.15789
2022-12-31T05:47:45.086Z,400.2963
2022-12-31T05:52:47.720Z,407.15789
2022-12-31T05:57:49.771Z,410.66667
2022-12-31T06:02:51.451Z,429.03937
2022-12-31T06:07:53.370Z,429.03937
2022-12-31T06:12:54.804Z,440.77419
2022-12-31T06:17:56.489Z,421.51938
2022-12-31T06:22:58.099Z,436.8
2022-12-31T06:27:59.755Z,453.09091
2022-12-31T06:33:01.491Z,457.33333
2022-12-31T06:38:03.213Z,448.91803
2022-12-31T06:43:04.807Z,457.33333
2022-12-31T06:48:06.875Z,440.77419
2022-12-31T06:53:08.473Z,504
2022-12-31T06:58:10.151Z,484.35088
2022-12-31T07:03:11.705Z,484.35088
2022-12-31T07:08:13.268Z,498.95495
2022-12-31T07:13:14.854Z,479.65217
2022-12-31T07:18:16.286Z,494
2022-12-31T07:23:17.998Z,489.13274
2022-12-31T07:28:19.755Z,475.03448
2022-12-31T07:33:21.345Z,504
2022-12-31T07:38:22.805Z,489.13274
2022-12-31T07:43:24.564Z,489.13274
2022-12-31T07:48:26.208Z,514.37037
2022-12-31T07:53:27.878Z,479.65217
2022-12-31T07:58:29.492Z,494
2022-12-31T08:03:31.082Z,504
2022-12-31T08:08:32.671Z,475.03448
2022-12-31T08:13:34.163Z,475.03448
2022-12-31T08:18:35.875Z,504
2022-12-31T08:23:37.316Z,498.95495
2022-12-31T08:28:38.989Z,489.13274
2022-12-31T08:33:40.493Z,519.70093
2022-12-31T08:38:42.004Z,494
2022-12-31T08:43:43.459Z,498.95495
2022-12-31T08:48:45.211Z,509.13761
2022-12-31T08:53:46.768Z,494
2022-12-31T08:58:48.431Z,530.66667
2022-12-31T09:03:50.088Z,509.13761
2022-12-31T09:08:51.564Z,525.13208
2022-12-31T09:13:53.310Z,525.13208
2022-12-31T09:18:54.895Z,514.37037
2022-12-31T09:23:56.399Z,542.05825
2022-12-31T09:28:58.076Z,542.05825
2022-12-31T09:33:59.784Z,525.13208
2022-12-31T09:39:01.353Z,530.66667
2022-12-31T09:44:03.117Z,547.92157
2022-12-31T09:49:05.186Z,530.66667
2022-12-31T09:54:06.651Z,530.66667
2022-12-31T09:59:08.308Z,542.05825
2022-12-31T10:04:10.165Z,560
2022-12-31T10:09:11.909Z,585.66667
2022-12-31T10:14:13.514Z,566.22222
2022-12-31T10:19:15.294Z,628.44444
2022-12-31T10:24:16.779Z,592.42105
2022-12-31T10:29:18.410Z,599.31915
2022-12-31T10:34:19.976Z,606.36559
2022-12-31T10:39:24.421Z,585.66667
2022-12-31T10:44:26.655Z,714
2022-12-31T10:49:28.534Z,677.33333
2022-12-31T10:54:30.071Z,723.74684
2022-12-31T10:59:32.727Z,677.33333
2022-12-31T11:04:34.405Z,668.70588
2022-12-31T11:09:36.154Z,677.33333
2022-12-31T11:14:37.858Z,695.21951
2022-12-31T11:19:39.449Z,620.92308
2022-12-31T11:24:40.998Z,686.16867
2022-12-31T11:29:42.869Z,704.49383
2022-12-31T11:34:44.549Z,765.33333
2022-12-31T11:39:45.974Z,744
2022-12-31T11:44:47.701Z,765.33333
2022-12-31T11:49:49.513Z,695.21951
2022-12-31T11:54:50.979Z,733.74359
2022-12-31T11:59:52.688Z,765.33333
2022-12-31T12:04:54.337Z,704.49383
2022-12-31T12:09:56.120Z,754.52632
2022-12-31T12:14:57.873Z,644
2022-12-31T12:19:59.461Z,704.49383
2022-12-31T12:25:01.275Z,695.21951
2022-12-31T12:30:03.264Z,733.74359
2022-12-31T12:35:05.104Z,686.16867
2022-12-31T12:40:06.852Z,811.60563
2022-12-31T12:45:08.644Z,799.55556
2022-12-31T12:50:11.005Z,849.88235
2022-12-31T12:55:12.725Z,863.40299
2022-12-31T13:00:14.992Z,921.77778
2022-12-31T13:05:16.818Z,891.69231
2022-12-31T13:10:18.642Z,937.54839
2022-12-31T13:15:20.293Z,970.66667
2022-12-31T13:20:22.742Z,953.83607
2022-12-31T13:25:24.488Z,988.0678
2022-12-31T13:30:26.137Z,1006.06897
2022-12-31T13:35:27.886Z,1064
2022-12-31T13:40:29.623Z,1006.06897
2022-12-31T13:45:31.530Z,921.77778
2022-12-31T13:50:33.731Z,953.83607
2022-12-31T13:55:35.492Z,988.0678
2022-12-31T14:00:37.539Z,1006.06897
2022-12-31T14:05:39.507Z,1024.70175
2022-12-31T14:10:41.188Z,891.69231
2022-12-31T14:15:42.691Z,1006.06897
2022-12-31T14:20:44.275Z,970.66667
2022-12-31T14:25:45.741Z,988.0678
2022-12-31T14:30:48.103Z,921.77778
2022-12-31T14:35:49.640Z,988.0678
2022-12-31T14:40:51.398Z,1024.70175
2022-12-31T14:45:53.054Z,937.54839
2022-12-31T14:50:55.732Z,953.83607
2022-12-31T14:55:57.440Z,970.66667
2022-12-31T15:01:00.301Z,953.83607
2022-12-31T15:06:02.172Z,953.83607
2022-12-31T15:11:03.967Z,921.77778
2022-12-31T15:16:05.734Z,849.88235
2022-12-31T15:21:07.539Z,891.69231
2022-12-31T15:26:09.079Z,799.55556
2022-12-31T15:31:17.486Z,824
2022-12-31T15:36:20.456Z,714
2022-12-31T15:41:22.256Z,787.83562
2022-12-31T15:46:24.148Z,514.37037
2022-12-31T15:51:26.050Z,542.05825
2022-12-31T15:56:27.840Z,536.30769
2022-12-31T16:01:30.092Z,579.05155
2022-12-31T16:06:32.258Z,636.13483
2022-12-31T16:11:34.054Z,628.44444
2022-12-31T16:16:35.556Z,585.66667
2022-12-31T16:21:37.373Z,566.22222
2022-12-31T16:26:39.133Z,572.57143
2022-12-31T16:31:40.797Z,599.31915
2022-12-31T16:36:42.621Z,613.56522
2022-12-31T16:41:44.088Z,644
2022-12-31T16:46:45.565Z,620.92308
2022-12-31T16:51:47.635Z,636.13483
2022-12-31T16:56:49.341Z,613.56522
2022-12-31T17:01:51.585Z,572.57143
2022-12-31T17:06:53.168Z,579.05155
2022-12-31T17:11:54.860Z,585.66667
2022-12-31T17:17:02.133Z,599.31915
2022-12-31T17:22:05.188Z,606.36559
2022-12-31T17:27:06.710Z,628.44444
2022-12-31T17:32:08.706Z,606.36559
2022-12-31T17:37:14.442Z,579.05155
2022-12-31T17:42:19.493Z,579.05155
2022-12-31T17:47:21.140Z,613.56522
2022-12-31T17:52:22.934Z,592.42105
2022-12-31T17:57:24.639Z,553.90099
2022-12-31T18:02:26.408Z,553.90099
2022-12-31T18:07:28.135Z,542.05825
2022-12-31T18:12:29.637Z,530.66667
2022-12-31T18:17:31.296Z,553.90099
2022-12-31T18:22:33.115Z,514.37037
2022-12-31T18:27:34.882Z,530.66667
2022-12-31T18:32:36.870Z,530.66667
2022-12-31T18:37:38.697Z,530.66667
2022-12-31T18:42:40.424Z,470.49573
2022-12-31T18:47:41.853Z,498.95495
2022-12-31T18:52:43.898Z,514.37037
2022-12-31T18:57:45.356Z,498.95495
2022-12-31T19:02:47.400Z,514.37037
2022-12-31T19:07:49.109Z,547.92157
2022-12-31T19:12:50.877Z,547.92157
2022-12-31T19:17:52.685Z,536.30769
2022-12-31T19:22:54.515Z,525.13208
2022-12-31T19:27:56.364Z,494
2022-12-31T19:32:58.651Z,479.65217
2022-12-31T19:38:00.460Z,466.0339
2022-12-31T19:43:02.282Z,448.91803
2022-12-31T19:48:04.136Z,444.81301
2022-12-31T19:53:06.599Z,432.88889
2022-12-31T19:58:08.383Z,432.88889
2022-12-31T20:03:10.367Z,432.88889
2022-12-31T20:08:12.248Z,440.77419
2022-12-31T20:13:13.992Z,436.8
2022-12-31T20:18:15.825Z,436.8
2022-12-31T20:23:17.620Z,457.33333
2022-12-31T20:28:19.471Z,475.03448
2022-12-31T20:33:21.470Z,466.0339
2022-12-31T20:38:23.299Z,457.33333
2022-12-31T20:43:25.123Z,453.09091
2022-12-31T20:48:26.887Z,461.64706
2022-12-31T20:53:28.952Z,453.09091
2022-12-31T20:58:30.731Z,444.81301
2022-12-31T21:04:03.026Z,440.77419
2022-12-31T21:09:06.733Z,440.77419
2022-12-31T21:14:08.527Z,440.77419
2022-12-31T21:19:10.328Z,457.33333
2022-12-31T21:24:11.835Z,466.0339
2022-12-31T21:29:13.339Z,479.65217
2022-12-31T21:34:15.111Z,519.70093
2022-12-31T21:39:16.705Z,436.8
2022-12-31T21:44:18.218Z,380.87943
2022-12-31T21:49:19.730Z,448.91803
2022-12-31T21:54:21.613Z,448.91803
2022-12-31T21:59:23.155Z,504
2022-12-31T22:05:00.447Z,566.22222
2022-12-31T22:10:03.756Z,579.05155
2022-12-31T22:15:15.640Z,566.22222
2022-12-31T22:20:27.016Z,599.31915
2022-12-31T22:25:29.344Z,606.36559
2022-12-31T22:30:30.860Z,560
2022-12-31T22:35:32.598Z,553.90099
2022-12-31T22:40:34.219Z,592.42105
2022-12-31T22:45:35.663Z,410.66667
2022-12-31T22:50:37.124Z,579.05155
2022-12-31T22:55:39.124Z,509.13761
2022-12-31T23:00:40.872Z,606.36559
2022-12-31T23:05:42.614Z,620.92308
2022-12-31T23:10:44.136Z,592.42105
2022-12-31T23:15:45.696Z,592.42105
2022-12-31T23:20:47.220Z,606.36559
2022-12-31T23:25:48.819Z,579.05155
2022-12-31T23:30:50.660Z,585.66667
2022-12-31T23:35:52.591Z,579.05155
2022-12-31T23:40:54.093Z,613.56522
2022-12-31T23:45:55.895Z,599.31915
2022-12-31T23:50:57.324Z,566.22222
2022-12-31T23:55:58.944Z,579.05155
